Metropolitan Oakland International Airport
KOAK : now visible

Airfield :











YOU CAN JOIN US ON...

 
LOGIN :

Register | Disclaimer

   EN    FR    IT 

 









Legend :    VFR   Marginal VFR   IFR   Intensive IFR   Very Intensive IFR
Visi :
Ceiling :
>= 8 km
>= 3000ft
5 to 8 km
1000 to 3000 ft
1500m to 5 km
500 to 1000 ft
800 to 1500m
200 to 500 ft
< 800m
< 200 ft
Symbols :   Thunderstorms  Fog  Heavy snow  Heavy precipitations  Wind > 20 kt






- Airport Elevation : 9 ft
- IATA code : OAK


KOAK - Metropolitan Oakland International

CURRENT METAR :
  • 230753Z 00000KT 10SM CLR 17/14 A2983 RMK AO2 SLP100 T01720139 402500139

EXPIRED METARs :
  • 230653Z 33004KT 10SM CLR 17/14 A2983 RMK AO2 SLP100 T01720144
  • 230553Z 31005KT 10SM CLR 18/14 A2983 RMK AO2 SLP100 T01780144 10239 20178 53009
  • 230453Z 31005KT 10SM FEW008 SCT180 19/14 A2982 RMK AO2 SLP096 T01890144

TAF KOAK
Valid from the 23 at 06:00 until the 24 at 12:00 UTC


230540Z 2306/2412 30004KT P6SM SCT007
TEMPO 2312/2316 BKN007
FM231900 27013KT P6SM SKC
FM240400 32008KT P6SM SKC
FM241100 02004KT P6SM SKC
KZOA FIR / North America



MET'MAP, your aeronautical weather chart ! - Copyright ORBIFLY December 2007 - Disclaimer

ORBIFLY MET'MAP TEAM :

Programming & Development : Alexandra Zaïnal
Original concept : Baudouin d'Aumeries
Technical & hardware support : Manuel Goepfert
Assistance : Marc-Olivier Méhu




SOURCES & CREDITS :

   NOAA       Earth
Advisory